19 | 09 | 2019

Daten Vortag

Wetterdaten von 10m Höhe gemessen, Station2

Datum / Zeit Intervall min Luftfeuchte % Temperatur °C absolut Luftdruck hPa Wind m/s Windbö m/s Richtung Relative Luftdruck hPa Taupunkt °C Windchill °C Niederschlag mm
18-09-2019 00:12 5 72 10.0 1012.7 5.0 8.6 N 1015.9 5.2 10.0 0.0
18-09-2019 00:21 5 72 10.0 1012.5 3.6 7.2 N 1015.7 5.2 10.0 0.0
18-09-2019 00:26 5 71 10.1 1012.7 6.1 7.2 W 1015.9 5.1 10.1 0.0
18-09-2019 00:31 5 71 10.1 1012.6 3.6 7.2 N 1015.8 5.1 10.1 0.0
18-09-2019 00:36 5 71 10.1 1012.9 3.6 6.1 W 1016.1 5.1 10.1 0.0
18-09-2019 00:41 5 71 9.9 1013.0 2.5 3.6 NW 1016.2 4.9 9.9 0.0
18-09-2019 00:46 5 72 9.8 1012.9 5.0 7.2 NW 1016.1 5.0 9.8 0.0
18-09-2019 00:51 5 72 9.7 1012.9 3.6 6.1 NW 1016.1 4.9 9.7 0.0
18-09-2019 00:56 5 73 9.7 1012.9 5.0 7.2 W 1016.1 5.1 9.7 0.0
18-09-2019 01:01 5 74 9.9 1013.1 2.5 3.6 W 1016.3 5.5 9.9 0.0
18-09-2019 01:06 5 74 9.9 1013.1 5.0 6.1 W 1016.3 5.5 9.9 0.0
18-09-2019 01:11 5 74 9.8 1013.1 5.0 7.2 N 1016.3 5.4 9.8 0.0
18-09-2019 01:16 5 74 9.9 1013.2 6.1 9.7 NW 1016.4 5.5 9.9 0.0
18-09-2019 01:21 5 74 10.0 1013.1 5.0 7.2 W 1016.3 5.6 10.0 0.0
18-09-2019 01:26 5 73 10.1 1013.1 6.1 11.2 W 1016.3 5.5 10.1 0.0
18-09-2019 01:31 5 73 10.2 1013.2 6.1 7.2 NW 1016.4 5.6 10.2 0.0
18-09-2019 01:36 5 72 10.2 1013.1 8.6 13.3 NW 1016.3 5.4 8.2 0.0
18-09-2019 01:41 5 72 10.2 1013.2 5.0 8.6 W 1016.4 5.4 10.2 0.0
18-09-2019 01:46 5 73 10.1 1013.2 2.5 5.0 W 1016.4 5.5 10.1 0.0
18-09-2019 01:51 5 73 10.0 1013.2 5.0 7.2 N 1016.4 5.4 10.0 0.0
18-09-2019 01:56 5 73 9.9 1013.2 3.6 6.1 E 1016.4 5.3 9.9 0.0
18-09-2019 02:01 5 73 9.8 1013.1 3.6 5.0 NW 1016.3 5.2 9.8 0.0
18-09-2019 02:06 5 73 9.6 1013.2 2.5 5.0 W 1016.4 5.0 9.6 0.0
18-09-2019 02:11 5 74 9.2 1013.2 2.5 3.6 NW 1016.4 4.8 9.2 0.0
18-09-2019 02:16 5 75 9.0 1013.1 1.1 3.6 NW 1016.3 4.8 9.0 0.0
18-09-2019 02:21 5 75 8.9 1013.2 2.5 3.6 NW 1016.4 4.7 8.9 0.0
18-09-2019 02:26 5 76 8.8 1013.2 2.5 5.0 NW 1016.4 4.8 8.8 0.0
18-09-2019 02:31 5 77 8.8 1013.4 1.1 3.6 W 1016.6 5.0 8.8 0.0
18-09-2019 02:36 5 78 8.7 1013.4 0.0 1.1 N 1016.6 5.1 8.7 0.0
18-09-2019 02:41 5 80 8.7 1013.4 2.5 3.6 S 1016.6 5.5 8.7 0.0
18-09-2019 02:46 5 81 8.9 1013.4 2.5 3.6 W 1016.6 5.8 8.9 0.0
18-09-2019 02:51 5 81 9.0 1013.5 2.5 5.0 W 1016.7 5.9 9.0 0.0
18-09-2019 02:56 5 82 9.1 1013.5 2.5 5.0 NW 1016.7 6.2 9.1 0.0
18-09-2019 03:01 5 82 9.1 1013.4 2.5 5.0 W 1016.6 6.2 9.1 0.0
18-09-2019 03:06 5 83 9.4 1013.4 3.6 5.0 W 1016.6 6.7 9.4 0.0
18-09-2019 03:11 5 83 9.5 1013.4 7.2 12.2 W 1016.6 6.8 8.4 0.0
18-09-2019 03:16 5 82 9.7 1013.4 3.6 6.1 W 1016.6 6.8 9.7 0.0
18-09-2019 03:21 5 82 9.9 1013.5 7.2 11.2 W 1016.7 7.0 8.8 0.0
18-09-2019 03:26 5 81 9.9 1013.5 6.1 12.2 SW 1016.7 6.8 9.9 0.0
18-09-2019 03:31 5 81 10.1 1013.4 3.6 7.2 SWW 1016.6 7.0 10.1 0.0
18-09-2019 03:36 5 80 10.0 1013.6 7.2 11.2 NW 1016.8 6.7 8.9 0.0
18-09-2019 03:41 5 80 10.1 1013.7 6.1 8.6 W 1016.9 6.8 10.1 0.0
18-09-2019 03:46 5 80 10.1 1013.7 6.1 9.7 SWW 1016.9 6.8 10.1 0.0
18-09-2019 03:51 5 80 9.9 1013.6 1.1 1.1 S 1016.8 6.6 9.9 0.0
18-09-2019 03:56 5 80 9.6 1013.8 0.0 1.1 W 1017.0 6.3 9.6 0.0
18-09-2019 04:01 5 80 9.4 1013.8 2.5 5.0 W 1017.0 6.1 9.4 0.0
18-09-2019 04:06 5 81 9.4 1013.8 2.5 3.6 NW 1017.0 6.3 9.4 0.0
18-09-2019 04:11 5 81 9.2 1013.8 1.1 2.5 E 1017.0 6.1 9.2 0.0
18-09-2019 04:16 5 81 9.2 1013.9 0.0 0.0 N 1017.1 6.1 9.2 0.0
18-09-2019 04:21 5 82 9.0 1013.8 0.0 0.0 SW 1017.0 6.1 9.0 0.0
18-09-2019 04:26 5 82 8.7 1013.8 2.5 3.6 W 1017.0 5.8 8.7 0.0
18-09-2019 04:31 5 83 8.6 1014.1 2.5 3.6 SW 1017.3 5.9 8.6 0.0
18-09-2019 04:36 5 84 8.4 1014.0 1.1 2.5 SW 1017.2 5.9 8.4 0.0
18-09-2019 04:41 5 85 8.3 1014.0 1.1 2.5 SW 1017.2 5.9 8.3 0.0
18-09-2019 04:46 5 85 8.2 1014.0 1.1 2.5 SW 1017.2 5.8 8.2 0.0
18-09-2019 04:51 5 86 8.2 1014.1 0.0 1.1 SWW 1017.3 6.0 8.2 0.0
18-09-2019 04:56 5 87 8.3 1014.1 0.0 0.0 W 1017.3 6.3 8.3 0.0
18-09-2019 05:01 5 87 8.2 1014.2 1.1 2.5 NW 1017.4 6.2 8.2 0.0
18-09-2019 05:06 5 87 8.2 1014.1 1.1 2.5 SW 1017.3 6.2 8.2 0.0
18-09-2019 05:11 5 88 8.1 1014.1 2.5 3.6 S 1017.3 6.2 8.1 0.0
18-09-2019 05:16 5 89 8.1 1014.2 2.5 3.6 W 1017.4 6.4 8.1 0.0
18-09-2019 05:21 5 89 8.1 1014.2 3.6 5.0 W 1017.4 6.4 8.1 0.0
18-09-2019 05:26 5 89 8.0 1014.3 1.1 2.5 SW 1017.5 6.3 8.0 0.0
18-09-2019 05:31 5 89 8.0 1014.2 3.6 5.0 NW 1017.4 6.3 8.0 0.0
18-09-2019 05:36 5 90 8.0 1014.2 1.1 3.6 N 1017.4 6.5 8.0 0.0
18-09-2019 05:41 5 90 8.1 1014.3 3.6 6.1 S 1017.5 6.6 8.1 0.0
18-09-2019 05:46 5 90 8.3 1014.2 1.1 2.5 S 1017.4 6.8 8.3 0.0
18-09-2019 05:51 5 91 8.4 1014.2 1.1 2.5 SW 1017.4 7.0 8.4 0.0
18-09-2019 05:56 5 91 8.6 1014.2 1.1 2.5 S 1017.4 7.2 8.6 0.0
18-09-2019 06:01 5 91 8.7 1014.3 2.5 3.6 SW 1017.5 7.3 8.7 0.0
18-09-2019 06:06 5 91 8.7 1014.3 1.1 2.5 NW 1017.5 7.3 8.7 0.0
18-09-2019 06:11 5 91 8.8 1014.3 3.6 6.1 NE 1017.5 7.4 8.8 0.0
18-09-2019 06:16 5 91 8.8 1014.3 3.6 6.1 SSW 1017.5 7.4 8.8 0.0
18-09-2019 06:21 5 91 8.9 1014.4 1.1 2.5 S 1017.6 7.5 8.9 0.0
18-09-2019 06:26 5 91 8.9 1014.4 3.6 5.0 SW 1017.6 7.5 8.9 0.0
18-09-2019 06:31 5 91 9.0 1014.5 3.6 7.2 S 1017.7 7.6 9.0 0.0
18-09-2019 06:36 5 91 9.0 1014.5 5.0 7.2 E 1017.7 7.6 9.0 0.0
18-09-2019 06:41 5 91 9.1 1014.5 2.5 5.0 NW 1017.7 7.7 9.1 0.0
18-09-2019 06:46 5 91 9.1 1014.6 1.1 2.5 S 1017.8 7.7 9.1 0.3
18-09-2019 06:51 5 91 9.1 1014.6 1.1 2.5 NW 1017.8 7.7 9.1 0.3
18-09-2019 06:56 5 91 9.1 1014.7 1.1 3.6 W 1017.9 7.7 9.1 0.3
18-09-2019 07:01 5 92 9.2 1014.7 1.1 2.5 S 1017.9 8.0 9.2 0.3
18-09-2019 07:06 5 92 9.2 1014.7 2.5 3.6 W 1017.9 8.0 9.2 0.3
18-09-2019 07:11 5 92 9.3 1014.8 2.5 6.1 NW 1018.0 8.1 9.3 0.3
18-09-2019 07:16 5 92 9.5 1014.7 5.0 8.6 NW 1017.9 8.3 9.5 0.3
18-09-2019 07:21 5 92 9.7 1014.8 3.6 7.2 NWW 1018.0 8.5 9.7 0.3
18-09-2019 07:26 5 92 9.9 1015.0 8.6 11.2 NWW 1018.2 8.7 7.9 0.6
18-09-2019 07:31 5 91 10.0 1015.0 8.6 9.7 N 1018.2 8.6 8.0 0.6
18-09-2019 07:36 5 90 10.2 1014.8 8.6 12.2 NE 1018.0 8.6 8.2 0.6
18-09-2019 07:41 5 90 10.2 1015.1 6.1 8.6 W 1018.3 8.6 10.2 0.6
18-09-2019 07:46 5 90 10.2 1015.0 6.1 8.6 SWW 1018.2 8.6 10.2 0.3
18-09-2019 07:51 5 90 10.2 1015.2 3.6 6.1 W 1018.4 8.6 10.2 0.3
18-09-2019 07:56 5 90 10.3 1015.0 7.2 9.7 W 1018.2 8.7 9.2 0.3
18-09-2019 08:01 5 90 10.4 1015.3 3.6 6.1 NW 1018.5 8.8 10.4 0.3
18-09-2019 08:06 5 90 10.4 1015.3 7.2 11.2 W 1018.5 8.8 9.3 0.3
18-09-2019 08:11 5 90 10.5 1015.3 6.1 8.6 W 1018.5 8.9 10.5 0.3
18-09-2019 08:16 5 88 10.9 1015.4 8.6 12.2 W 1018.6 9.0 9.0 0.3
18-09-2019 08:21 5 87 11.6 1015.5 8.6 13.3 N 1018.7 9.5 9.7 0.3
18-09-2019 08:26 5 83 11.8 1015.5 6.1 9.7 SW 1018.7 9.0 11.8 0.0
18-09-2019 08:31 5 81 12.0 1015.7 7.2 12.2 SWW 1018.9 8.9 11.0 0.0
18-09-2019 08:36 5 76 12.2 1015.7 6.1 9.7 NW 1018.9 8.1 12.2 0.0
18-09-2019 08:41 5 76 12.2 1015.9 13.3 18.4 NW 1019.1 8.1 8.4 0.0
18-09-2019 08:46 5 72 12.6 1015.9 12.2 15.8 NW 1019.1 7.7 9.2 0.0
18-09-2019 08:51 5 71 13.0 1015.9 6.1 8.6 W 1019.1 7.9 13.0 0.0
18-09-2019 08:56 5 69 13.1 1016.0 11.2 13.3 NW 1019.2 7.6 10.2 0.0
18-09-2019 09:01 5 67 12.6 1016.1 12.2 17.3 N 1019.3 6.7 9.2 0.0
18-09-2019 09:06 5 72 12.3 1016.2 6.1 9.7 W 1019.4 7.4 12.3 0.0
18-09-2019 09:11 5 72 12.3 1016.3 11.2 15.8 NE 1019.5 7.4 9.3 0.0
18-09-2019 09:16 5 72 12.3 1016.3 13.3 17.3 SW 1019.5 7.4 8.5 0.0
18-09-2019 09:21 5 67 12.7 1016.4 12.2 20.9 NW 1019.6 6.7 9.4 0.0
18-09-2019 09:26 5 63 13.5 1016.5 11.2 14.8 NW 1019.7 6.6 10.7 0.0
18-09-2019 09:31 5 62 13.7 1016.6 11.2 15.8 NW 1019.8 6.6 10.9 0.0
18-09-2019 09:36 5 60 13.9 1016.6 14.8 25.6 N 1019.8 6.3 9.9 0.0
18-09-2019 09:41 5 60 14.2 1016.8 9.7 14.8 NNW 1020.0 6.6 12.1 0.0
18-09-2019 09:46 5 59 14.3 1016.8 14.8 23.4 NWW 1020.0 6.4 10.4 0.0
18-09-2019 09:51 5 60 14.4 1017.0 7.2 11.2 NW 1020.2 6.8 13.5 0.0
18-09-2019 09:56 5 60 14.7 1017.0 11.2 18.4 SW 1020.2 7.0 12.1 0.0
18-09-2019 10:01 5 58 14.7 1017.1 17.3 25.6 N 1020.3 6.5 10.2 0.0
18-09-2019 10:06 5 58 14.6 1017.1 11.2 17.3 W 1020.3 6.4 12.0 0.0
18-09-2019 10:11 5 58 15.0 1017.1 11.2 13.3 NW 1020.3 6.8 12.4 0.0
18-09-2019 10:16 5 56 14.7 1017.1 11.2 14.8 NW 1020.3 6.0 12.1 0.0
18-09-2019 10:21 5 54 15.3 1017.1 20.9 28.1 SW 1020.3 6.1 10.2 0.0
18-09-2019 10:26 5 54 15.2 1017.2 17.3 20.9 NW 1020.4 6.0 10.8 0.0
18-09-2019 10:31 5 56 14.0 1017.4 14.8 20.9 NW 1020.6 5.4 10.0 0.0
18-09-2019 10:36 5 59 14.5 1017.2 9.7 15.8 NW 1020.4 6.6 12.4 0.0
18-09-2019 10:41 5 57 15.3 1017.3 14.8 22.0 NW 1020.5 6.9 11.6 0.0
18-09-2019 10:46 5 55 15.5 1017.4 17.3 22.0 N 1020.6 6.5 11.2 0.0
18-09-2019 10:51 5 55 15.1 1017.5 8.6 11.2 N 1020.7 6.1 13.5 0.0
18-09-2019 10:56 5 54 15.4 1017.4 19.4 28.1 SWW 1020.6 6.2 10.6 0.0
18-09-2019 11:01 5 55 15.0 1017.5 11.2 14.8 W 1020.7 6.1 12.4 0.0
18-09-2019 11:06 5 57 15.3 1017.5 11.2 22.0 NW 1020.7 6.9 12.8 0.0
18-09-2019 11:11 5 54 15.3 1017.6 11.2 19.4 N 1020.8 6.1 12.8 0.0
18-09-2019 11:16 5 54 15.2 1017.6 11.2 17.3 S 1020.8 6.0 12.6 0.0
18-09-2019 11:21 5 58 14.6 1017.6 7.2 12.2 NNE 1020.8 6.4 13.7 0.0
18-09-2019 11:26 5 57 14.8 1017.6 15.8 24.5 NW 1020.8 6.4 10.7 0.0
18-09-2019 11:31 5 58 14.5 1017.7 13.3 18.4 NW 1020.9 6.4 11.1 0.0
18-09-2019 11:36 5 59 14.3 1017.8 11.2 23.4 N 1021.0 6.4 11.6 0.0
18-09-2019 11:41 5 59 14.5 1017.7 6.1 12.2 N 1020.9 6.6 14.5 0.0
18-09-2019 11:46 5 56 14.9 1017.7 14.8 18.4 W 1020.9 6.2 11.1 0.0
18-09-2019 11:51 5 56 15.9 1017.9 9.7 13.3 NNW 1021.1 7.2 14.0 0.0
18-09-2019 11:56 5 53 16.3 1017.8 14.8 23.4 NNW 1021.0 6.7 12.8 0.0
18-09-2019 12:01 5 52 15.7 1018.0 15.8 19.4 SWW 1021.2 5.9 11.8 0.0
18-09-2019 12:06 5 53 15.6 1018.1 9.7 15.8 N 1021.3 6.1 13.6 0.0
18-09-2019 12:11 5 56 16.3 1017.9 11.2 14.8 NE 1021.1 7.5 13.9 0.0
18-09-2019 12:16 5 52 17.0 1018.1 11.2 17.3 NW 1021.3 7.1 14.7 0.0
18-09-2019 12:21 5 52 15.5 1018.1 12.2 17.3 NNE 1021.3 5.7 12.6 0.0
18-09-2019 12:26 5 53 15.2 1018.1 13.3 20.9 SW 1021.3 5.7 11.9 0.0
18-09-2019 12:31 5 53 15.1 1018.2 14.8 20.9 N 1021.4 5.6 11.4 0.0
18-09-2019 12:36 5 54 15.4 1018.1 11.2 14.8 NE 1021.3 6.2 12.9 0.0
18-09-2019 12:41 5 51 15.1 1018.2 11.2 17.3 NNW 1021.4 5.1 12.5 0.0
18-09-2019 12:46 5 52 15.1 1018.1 15.8 23.4 NW 1021.3 5.3 11.1 0.0
18-09-2019 12:51 5 52 14.4 1018.2 12.2 17.3 N 1021.4 4.7 11.3 0.0
18-09-2019 12:52 5 52 14.8 1018.4 13.3 19.4 NW 1021.6 5.1 11.4 0.0
18-09-2019 12:58 5 52 15.8 1018.3 11.2 15.8 NW 1021.5 6.0 13.3 0.0
18-09-2019 13:03 5 51 15.5 1018.3 13.3 17.3 W 1021.5 5.4 12.3 0.0
18-09-2019 13:08 5 53 15.6 1018.4 8.6 12.2 NW 1021.6 6.1 14.1 0.0
18-09-2019 13:13 5 52 15.8 1018.4 8.6 12.2 NE 1021.6 6.0 14.3 0.0
18-09-2019 13:18 5 51 15.2 1018.3 14.8 19.4 W 1021.5 5.1 11.5 0.0
18-09-2019 13:23 5 53 15.0 1018.2 9.7 15.8 NW 1021.4 5.5 13.0 0.0
18-09-2019 13:28 5 54 14.7 1018.3 9.7 12.2 W 1021.5 5.5 12.6 0.0
18-09-2019 13:33 5 55 15.5 1018.3 12.2 18.4 SW 1021.5 6.5 12.6 0.0
18-09-2019 13:38 5 54 15.4 1018.3 7.2 12.2 NW 1021.5 6.2 14.5 0.0
18-09-2019 13:43 5 54 15.1 1018.4 12.2 15.8 W 1021.6 5.9 12.2 0.0
18-09-2019 13:48 5 54 15.5 1018.4 9.7 14.8 NW 1021.6 6.3 13.5 0.0
18-09-2019 13:53 5 53 15.1 1018.3 13.3 20.9 N 1021.5 5.6 11.8 0.0
18-09-2019 13:58 5 53 14.6 1018.5 9.7 14.8 N 1021.7 5.1 12.5 0.0
18-09-2019 14:03 5 54 14.7 1018.4 14.8 23.4 NW 1021.6 5.5 10.9 0.0
18-09-2019 14:08 5 54 15.3 1018.5 9.7 17.3 NWW 1021.7 6.1 13.3 0.0
18-09-2019 14:13 5 55 14.9 1018.3 13.3 20.9 NW 1021.5 6.0 11.6 0.0
18-09-2019 14:18 5 55 14.4 1018.5 11.2 14.8 N 1021.7 5.5 11.7 0.0
18-09-2019 14:23 5 59 14.4 1018.4 7.2 13.3 W 1021.6 6.5 13.5 0.0
18-09-2019 14:28 5 60 14.7 1018.4 7.2 9.7 N 1021.6 7.0 13.8 0.0
18-09-2019 14:33 5 56 15.0 1018.4 8.6 12.2 W 1021.6 6.3 13.4 0.0
18-09-2019 14:38 5 54 15.8 1018.3 13.3 23.4 NWW 1021.5 6.5 12.6 0.0
18-09-2019 14:43 5 52 15.7 1018.3 8.6 13.3 N 1021.5 5.9 14.2 0.0
18-09-2019 14:48 5 52 15.2 1018.4 15.8 22.0 N 1021.6 5.4 11.2 0.0
18-09-2019 14:53 5 55 15.1 1018.5 9.7 15.8 NW 1021.7 6.1 13.1 0.0
18-09-2019 14:58 5 55 14.8 1018.4 8.6 12.2 NWW 1021.6 5.9 13.2 0.0
18-09-2019 15:03 5 56 15.4 1018.4 8.6 13.3 NW 1021.6 6.7 13.9 0.0
18-09-2019 15:08 5 53 15.7 1018.1 9.7 13.3 SW 1021.3 6.2 13.8 0.0
18-09-2019 15:13 5 51 15.3 1018.2 20.9 27.0 SW 1021.4 5.2 10.2 0.0
18-09-2019 15:18 5 53 15.0 1018.3 7.2 12.2 W 1021.5 5.5 14.1 0.0
18-09-2019 15:23 5 54 14.9 1018.4 8.6 13.3 NW 1021.6 5.7 13.3 0.0
18-09-2019 15:28 5 53 14.8 1018.4 14.8 18.4 NE 1021.6 5.3 11.0 0.0
18-09-2019 15:33 5 54 14.8 1018.3 6.1 9.7 NW 1021.5 5.6 14.8 0.0
18-09-2019 15:38 5 55 14.9 1018.2 8.6 13.3 NW 1021.4 6.0 13.3 0.0
18-09-2019 15:43 5 55 15.9 1018.2 12.2 18.4 SW 1021.4 6.9 13.1 0.0
18-09-2019 15:48 5 52 16.0 1018.3 11.2 17.3 W 1021.5 6.2 13.6 0.0
18-09-2019 15:53 5 55 15.1 1018.2 11.2 14.8 W 1021.4 6.1 12.5 0.0
18-09-2019 15:58 5 58 14.9 1018.3 6.1 8.6 NW 1021.5 6.7 14.9 0.0
18-09-2019 16:03 5 59 14.9 1018.3 9.7 12.2 W 1021.5 7.0 12.9 0.0
18-09-2019 16:08 5 57 14.2 1018.3 11.2 18.4 W 1021.5 5.8 11.5 0.0
18-09-2019 16:13 5 59 14.4 1018.4 13.3 15.8 SW 1021.6 6.5 11.0 0.0
18-09-2019 16:18 5 55 14.6 1018.3 13.3 23.4 W 1021.5 5.7 11.2 0.0
18-09-2019 16:23 5 55 15.2 1018.1 13.3 18.4 W 1021.3 6.2 11.9 0.0
18-09-2019 16:28 5 56 16.1 1018.3 8.6 17.3 NW 1021.5 7.3 14.6 0.0
18-09-2019 16:33 5 53 15.4 1018.2 9.7 13.3 N 1021.4 5.9 13.4 0.0
18-09-2019 16:38 5 54 14.4 1018.4 11.2 15.8 W 1021.6 5.2 11.7 0.0
18-09-2019 16:43 5 55 14.0 1018.4 13.3 19.4 SE 1021.6 5.1 10.5 0.0
18-09-2019 16:48 5 63 13.3 1018.8 14.8 22.0 SW 1022.0 6.4 9.2 0.0
18-09-2019 16:53 5 70 11.8 1018.6 17.3 23.4 SW 1021.8 6.5 6.6 0.3
18-09-2019 16:58 5 70 12.0 1018.6 9.7 13.3 SW 1021.8 6.7 9.6 0.3
18-09-2019 17:03 5 66 13.1 1018.5 8.6 9.7 SW 1021.7 6.9 11.4 0.3
18-09-2019 17:08 5 65 13.2 1018.4 5.0 7.2 E 1021.6 6.8 13.2 0.3
18-09-2019 17:13 5 64 14.0 1018.4 7.2 9.7 W 1021.6 7.3 13.1 0.3
18-09-2019 17:18 5 62 14.4 1018.4 8.6 12.2 W 1021.6 7.2 12.8 0.3
18-09-2019 17:23 5 62 14.7 1018.4 7.2 9.7 W 1021.6 7.5 13.8 0.3
18-09-2019 17:28 5 62 14.8 1018.4 7.2 8.6 W 1021.6 7.6 13.9 0.3
18-09-2019 17:33 5 62 15.0 1018.4 14.8 18.4 SW 1021.6 7.8 11.3 0.3
18-09-2019 17:38 5 62 15.1 1018.4 11.2 15.8 NW 1021.6 7.9 12.5 0.3
18-09-2019 17:43 5 62 14.7 1018.3 12.2 19.4 N 1021.5 7.5 11.7 0.3
18-09-2019 17:48 5 62 14.0 1018.5 9.7 13.3 W 1021.7 6.9 11.9 0.3
18-09-2019 17:53 5 63 13.6 1018.3 8.6 11.2 NW 1021.5 6.7 11.9 0.0
18-09-2019 17:58 5 65 13.4 1018.4 8.6 12.2 SSW 1021.6 7.0 11.7 0.0
18-09-2019 18:03 5 68 13.1 1018.4 6.1 9.7 W 1021.6 7.3 13.1 0.0
18-09-2019 18:08 5 68 12.8 1018.4 6.1 8.6 NW 1021.6 7.1 12.8 0.0
18-09-2019 18:13 5 68 12.7 1018.5 8.6 12.2 NW 1021.7 7.0 10.9 0.0
18-09-2019 18:18 5 67 12.6 1018.6 8.6 12.2 NW 1021.8 6.7 10.8 0.0
18-09-2019 18:23 5 73 12.0 1018.4 8.6 11.2 W 1021.6 7.3 10.2 0.6
18-09-2019 18:28 5 77 11.8 1018.4 6.1 9.7 W 1021.6 7.9 11.8 0.6
18-09-2019 18:33 5 78 11.6 1018.4 3.6 6.1 NW 1021.6 7.9 11.6 0.6
18-09-2019 18:38 5 78 11.5 1018.4 7.2 11.2 NW 1021.6 7.8 10.4 0.6
18-09-2019 18:43 5 79 11.7 1018.5 5.0 7.2 NWW 1021.7 8.2 11.7 0.6
18-09-2019 18:48 5 79 11.8 1018.5 7.2 9.7 NWW 1021.7 8.3 10.8 0.6
18-09-2019 18:53 5 78 11.9 1018.6 9.7 13.3 NWW 1021.8 8.2 9.5 0.6
18-09-2019 18:58 5 76 11.7 1018.6 9.7 14.8 W 1021.8 7.6 9.3 0.6
18-09-2019 19:03 5 76 11.5 1018.7 5.0 6.1 SWW 1021.9 7.4 11.5 0.6
18-09-2019 19:08 5 77 11.4 1018.5 3.6 6.1 NW 1021.7 7.5 11.4 0.6
18-09-2019 19:13 5 78 11.2 1018.6 6.1 8.6 W 1021.8 7.5 11.2 0.6
18-09-2019 19:18 5 77 11.4 1018.6 5.0 7.2 NW 1021.8 7.5 11.4 0.6
18-09-2019 19:23 5 75 11.6 1018.8 9.7 14.8 NNW 1022.0 7.3 9.2 0.0
18-09-2019 19:28 5 75 11.6 1019.2 12.2 22.0 N 1022.4 7.3 8.1 0.0
18-09-2019 19:33 5 78 10.9 1019.1 5.0 9.7 NNE 1022.3 7.2 10.9 0.3
18-09-2019 19:38 5 81 10.5 1018.9 7.2 9.7 W 1022.1 7.4 9.4 0.3
18-09-2019 19:43 5 81 10.3 1018.9 3.6 7.2 W 1022.1 7.2 10.3 0.3
18-09-2019 19:48 5 82 10.1 1018.8 5.0 7.2 W 1022.0 7.2 10.1 0.3
18-09-2019 19:53 5 82 10.0 1019.1 3.6 6.1 SWW 1022.3 7.1 10.0 0.3
18-09-2019 19:58 5 82 9.9 1019.2 5.0 7.2 NW 1022.4 7.0 9.9 0.3
18-09-2019 20:03 5 81 10.0 1019.2 5.0 7.2 W 1022.4 6.9 10.0 0.3
18-09-2019 20:08 5 81 10.2 1019.3 7.2 11.2 W 1022.5 7.1 9.1 0.3
18-09-2019 20:13 5 81 10.3 1019.4 7.2 11.2 NWW 1022.6 7.2 9.2 0.3
18-09-2019 20:18 5 81 10.3 1019.4 8.6 11.2 W 1022.6 7.2 8.3 0.3
18-09-2019 20:23 5 82 10.3 1019.3 12.2 17.3 NWW 1022.5 7.4 6.6 0.3
18-09-2019 20:28 5 85 10.2 1019.4 8.6 11.2 W 1022.6 7.8 8.2 0.3
18-09-2019 20:33 5 86 10.2 1019.2 6.1 8.6 NWW 1022.4 8.0 10.2 0.0
18-09-2019 20:38 5 87 10.1 1019.2 3.6 6.1 W 1022.4 8.0 10.1 0.0
18-09-2019 20:43 5 87 10.1 1019.5 5.0 9.7 SW 1022.7 8.0 10.1 0.0
18-09-2019 20:48 5 87 10.1 1019.5 7.2 11.2 W 1022.7 8.0 9.0 0.0
18-09-2019 20:53 5 88 10.2 1019.3 7.2 9.7 NW 1022.5 8.3 9.1 0.0
18-09-2019 20:58 5 88 10.2 1019.5 6.1 9.7 NW 1022.7 8.3 10.2 0.0
18-09-2019 21:03 5 86 10.1 1019.5 7.2 9.7 NWW 1022.7 7.9 9.0 0.3
18-09-2019 21:08 5 85 10.1 1019.5 5.0 7.2 NW 1022.7 7.7 10.1 0.3
18-09-2019 21:13 5 85 10.0 1019.5 3.6 6.1 SW 1022.7 7.6 10.0 0.3
18-09-2019 21:18 5 86 10.1 1019.6 5.0 7.2 W 1022.8 7.9 10.1 0.3
18-09-2019 21:23 5 87 10.2 1019.5 7.2 11.2 SW 1022.7 8.1 9.1 0.3
18-09-2019 21:28 5 87 10.2 1019.5 5.0 7.2 W 1022.7 8.1 10.2 0.3
18-09-2019 21:33 5 86 10.2 1019.5 6.1 8.6 W 1022.7 8.0 10.2 0.3
18-09-2019 21:38 5 85 10.2 1019.6 5.0 7.2 W 1022.8 7.8 10.2 0.3
18-09-2019 21:43 5 85 10.2 1019.6 3.6 6.1 NW 1022.8 7.8 10.2 0.3
18-09-2019 21:48 5 84 10.1 1019.7 5.0 6.1 NW 1022.9 7.5 10.1 0.3
18-09-2019 21:53 5 84 10.0 1019.8 2.5 3.6 W 1023.0 7.4 10.0 0.3
18-09-2019 21:58 5 85 9.9 1019.7 2.5 5.0 SW 1022.9 7.5 9.9 0.3
18-09-2019 22:03 5 85 9.9 1019.7 0.0 0.0 SW 1022.9 7.5 9.9 0.0
18-09-2019 22:08 5 85 9.7 1019.6 0.0 0.0 SW 1022.8 7.3 9.7 0.0
18-09-2019 22:13 5 86 9.6 1019.6 0.0 0.0 W 1022.8 7.4 9.6 0.0
18-09-2019 22:18 5 86 9.4 1019.6 0.0 1.1 NW 1022.8 7.2 9.4 0.0
18-09-2019 22:23 5 86 9.3 1019.6 0.0 1.1 S 1022.8 7.1 9.3 0.0
18-09-2019 22:28 5 87 9.2 1019.8 0.0 0.0 W 1023.0 7.2 9.2 0.0
18-09-2019 22:33 5 88 9.2 1019.6 2.5 5.0 W 1022.8 7.3 9.2 0.0
18-09-2019 22:38 5 89 9.2 1019.7 1.1 2.5 W 1022.9 7.5 9.2 0.0
18-09-2019 22:43 5 89 9.3 1019.6 1.1 3.6 S 1022.8 7.6 9.3 0.0
18-09-2019 22:48 5 90 9.4 1019.7 6.1 8.6 NW 1022.9 7.9 9.4 0.0
18-09-2019 22:53 5 90 9.6 1019.8 3.6 6.1 NWW 1023.0 8.1 9.6 0.0
18-09-2019 22:58 5 89 9.6 1019.9 1.1 2.5 N 1023.1 7.9 9.6 0.0
18-09-2019 23:03 5 88 9.6 1019.9 3.6 6.1 W 1023.1 7.7 9.6 0.0
18-09-2019 23:08 5 87 9.6 1019.9 2.5 3.6 W 1023.1 7.6 9.6 0.0
18-09-2019 23:13 5 87 9.5 1020.0 2.5 3.6 SW 1023.2 7.5 9.5 0.0
18-09-2019 23:18 5 86 9.3 1019.9 0.0 1.1 NE 1023.1 7.1 9.3 0.0
18-09-2019 23:23 5 86 9.2 1020.0 2.5 5.0 N 1023.2 7.0 9.2 0.0
18-09-2019 23:28 5 86 9.2 1019.9 0.0 0.0 N 1023.1 7.0 9.2 0.0
18-09-2019 23:33 5 86 9.0 1020.2 0.0 0.0 W 1023.4 6.8 9.0 0.0
18-09-2019 23:38 5 86 8.8 1020.1 0.0 0.0 W 1023.3 6.6 8.8 0.0
18-09-2019 23:43 5 86 8.6 1020.1 0.0 0.0 W 1023.3 6.4 8.6 0.0
18-09-2019 23:48 5 87 8.6 1020.1 1.1 2.5 W 1023.3 6.6 8.6 0.0
18-09-2019 23:53 5 89 8.8 1020.1 0.0 1.1 NW 1023.3 7.1 8.8 0.0
18-09-2019 23:58 5 90 8.9 1020.1 2.5 3.6 W 1023.3 7.4 8.9 0.0

                                                                              Tabelle: 08 : 00 UHR

STATIONHÖHELUFTD.TEMP.T-MinT-MaxU%RR1RR12SSSDDFFFXWetter+WolkenBöen
UFS TW Ems 0 ------ --- --- --- --- ---- --- --- -- --- --- --- ---
UFS Deutsche Bucht 0 ------ --- --- --- --- ---- --- --- -- --- --- --- ---
Helgoland 4 1023.0 13.0 12.4 14.2 55 0.0 0 --- -- --- --- wolkenlos ---
List/Sylt 26 1021.0 12.1 12.0 13.5 58 0.0 0 0 NW 47 68 leichter Regen Sturmböen
Schleswig 43 1021.0 8.9 7.0 8.9 85 0.0 0 0 W 12 19 bewölkt ---
Leuchtturm Kiel 5 1020.2 11.4 10.9 11.7 69 ---- --- --- NW 46 57 --- Windböen
Kiel 27 1020.8 9.8 7.9 10.0 78 0.0 0 --- W 8 23 --- ---
Fehmarn 3 1019.1 12.0 11.8 12.7 71 0.0 0 --- NW 51 65 --- Windböen
Arkona 42 1016.0 11.7 7.8 12.5 82 0.0 2 --- W 28 49 --- ---
Norderney 11 1024.1 13.9 13.5 14.8 62 0.0 0 --- NW 42 54 --- Windböen
Leuchtt. Alte Weser 32 1022.5 13.5 12.2 14.6 69 ---- --- --- NW 50 --- --- ---
Cuxhaven 5 1022.5 13.1 11.3 14.1 68 0.0 2 --- NW 37 51 --- Windböen
Hamburg-Flh. 11 1022.0 9.9 8.4 11.2 77 0.0 1 0 W 12 22 bedeckt ---
Schwerin 59 1020.5 9.6 7.4 11.0 79 0.0 0 --- W 19 32 --- ---
Rostock 4 1018.2 12.4 10.0 13.1 75 0.0 1 --- NW 41 54 --- Windböen
Greifswald 2 1017.4 8.0 7.3 11.1 87 0.0 1 0 W 11 --- bewölkt ---
Emden 0 1024.4 12.4 11.1 13.4 65 0.0 0 --- NW 14 19 Regen ---
Bremen-Flh. 5 1023.7 6.5 6.3 12.0 94 0.0 1 0 W 8 12 heiter ---
Lüchow 17 1021.9 8.8 7.8 11.1 91 0.0 0 --- W 13 22 --- ---
Marnitz 81 1020.0 8.0 6.5 10.5 87 0.0 0 --- NW 19 32 --- ---
Waren 70 1019.1 8.1 6.9 10.5 87 0.0 1 --- W 14 27 --- ---
Neuruppin 38 1020.0 7.5 6.5 9.9 90 0.0 0 --- W 13 24 --- ---
Angermünde 56 1019.0 7.1 6.6 10.0 88 0.0 4 0 W 25 46 wolkenlos ---
Münster/Osnabr.-Flh. 48 1025.9 5.3 4.7 12.6 98 0.0 0 0 SW 2 4 Dunst oder flacher Nebel ---
Hannover-Flh. 59 1023.8 8.3 7.9 11.1 87 0.0 0 0 W 14 25 heiter ---
Magdeburg 76 1022.6 9.9 8.2 11.5 83 0.0 0 --- W 10 23 --- ---
Potsdam 81 1020.7 7.8 7.1 10.6 92 0.0 0 0 W 20 31 heiter ---
Berlin-Tegel 37 1020.3 7.8 7.0 10.3 90 0.0 0 0 W 14 26 heiter ---
Berlin-Tempelhof 48 1020.4 8.3 7.5 11.4 87 0.0 0 --- W 19 30 --- ---
Berlin-Dahlem 51 1020.4 7.8 7.3 11.2 --- ---- 0 0 W 18 --- heiter ---
Lindenberg 91 1020.2 7.4 6.9 9.9 91 0.0 1 0 W 16 28 bewölkt ---
Düsseldorf-Flh. 45 1026.8 5.2 4.0 14.0 97 0.0 0 0 N 2 5 heiter ---
Essen 150 1026.7 6.0 5.5 12.4 99 0.0 0 --- SW 2 5 --- ---
Kahler Asten 839 ------ 4.6 3.9 7.5 97 0.0 0 --- N 18 34 Nebel ---
Bad Lippspringe 157 1025.9 6.9 4.9 12.5 94 0.0 0 --- S 3 5 --- ---
Fritzlar 174 1026.3 4.6 3.0 13.4 94 ---- 0 0 - 0 --- heiter ---
Brocken 1142 ------ 3.1 2.2 3.1 100 ---- 2 0 NW 32 48 Nebel ---
Leipzig-Flh. 142 1023.2 7.4 5.4 12.5 88 0.0 0 0 W 16 22 bewölkt ---
Dresden-Flh. 227 1022.3 7.6 6.9 11.1 84 0.0 1 0 W 17 28 heiter ---
Cottbus 69 1020.6 8.0 6.8 11.6 85 0.0 0 --- W 11 26 wolkenlos ---
Görlitz 238 1021.7 7.5 6.8 11.3 85 0.0 0 --- W 13 27 --- ---
Aachen 231 1027.2 6.0 5.4 13.7 88 0.0 0 --- W 4 7 wolkenlos ---
Nürburg 485 1027.4 4.3 3.9 12.5 95 0.0 0 --- NO 3 5 wolkenlos ---
Köln/Bonn-Flh. 92 1027.0 4.9 2.5 14.9 95 0.0 0 0 SO 7 11 heiter ---
Gießen/Wettenberg 203 1026.6 4.2 3.0 15.7 94 0.0 0 --- O 6 7 wolkenlos ---
Wasserkuppe 921 ------ 4.1 3.5 9.3 97 0.0 0 0 N 21 31 Nebel ---
Meiningen 450 1025.9 6.1 4.7 12.8 86 0.0 0 --- W 6 9 --- ---
Erfurt 316 1024.9 6.4 3.9 11.4 88 0.0 0 0 W 20 25 heiter ---
Gera 311 1024.2 6.6 6.2 12.1 88 0.0 0 --- W 13 23 wolkenlos ---
Fichtelberg 1213 ------ 1.5 0.9 5.1 97 ---- --- --- NW 34 57 Nebel Windböen
Trier 265 1026.8 5.9 5.2 15.3 89 0.0 0 --- N 5 12 wolkenlos ---
Hahn-Flh. 497 1026.8 5.7 4.5 12.4 91 0.0 0 --- NO 14 22 --- ---
Frankfurt/M-Flh. 112 1026.3 7.3 4.8 16.8 83 0.0 0 0 SO 2 13 heiter ---
OF-Wetterpark 119 1026.4 5.0 4.8 17.0 94 0.0 0 --- SO 3 7 wolkenlos ---
Würzburg 268 1026.5 7.7 5.7 15.9 77 0.0 0 --- - 0 10 wolkenlos ---
Bamberg 239 1026.3 3.6 1.4 16.5 86 0.0 0 --- SO 3 6 wolkenlos ---
Hof 567 1025.4 5.2 4.5 12.8 86 0.0 0 --- W 6 13 wolkenlos ---
Weiden 438 1025.9 5.2 3.2 14.7 84 0.0 0 --- O 3 5 wolkenlos ---
Saarbrücken-Flh. 320 1025.8 7.3 6.1 16.5 79 0.0 0 0 NO 17 25 wolkenlos ---
Karlsruhe-Rheinst. 116 1025.4 9.3 8.7 18.3 81 0.0 0 --- NO 9 16 wolkenlos ---
Mannheim 96 1026.2 7.7 5.6 16.9 83 0.0 0 --- N 3 10 wolkenlos ---
Stuttgart-Flh. 371 1025.3 9.1 8.0 16.3 77 0.0 0 --- NO 4 9 heiter ---
Öhringen 276 1026.2 6.3 5.5 16.5 89 0.0 0 --- N 3 9 wolkenlos ---
Nürnberg-Flh. 314 1026.4 4.5 2.2 15.9 89 0.0 0 0 N 4 11 heiter ---
Regensburg 366 1025.9 5.6 5.0 14.1 93 0.0 0 --- N 4 8 wolkenlos ---
Straubing 351 1025.3 7.9 7.1 15.1 78 0.0 0 --- NW 8 15 wolkenlos ---
Großer Arber 1436 ------ 0.1 -0.2 6.2 98 0.0 0 --- N 25 38 Nebel ---
Lahr 155 1024.0 7.9 6.0 15.4 90 0.0 0 --- NO 7 12 wolkenlos ---
Freudenstadt 797 ------ 5.3 5.1 12.0 92 0.0 0 --- NO 8 16 wolkenlos ---
Stötten 734 1025.5 5.6 5.0 12.2 81 0.0 0 --- O 14 19 wolkenlos ---
Augsburg 462 1026.1 4.3 2.7 14.7 99 0.0 0 --- O 3 5 Nebel ---
München-Flh. 444 1025.5 7.0 3.7 15.9 86 0.0 0 0 - 0 4 heiter ---
Fürstenzell 476 1025.0 7.5 7.0 14.7 80 0.0 0 --- W 6 13 wolkenlos ---
Feldberg/Schw. 1486 ------ 3.1 3.0 8.3 96 0.0 0 0 O 37 44 Nebel ---
Konstanz 443 1023.1 11.2 11.1 20.2 70 0.0 0 --- NO 10 20 wolkenlos ---
Kempten 705 1023.2 9.8 9.7 16.6 77 0.0 0 --- NO 5 14 --- ---
Oberstdorf 806 ------ 10.3 10.3 16.2 77 0.0 0 --- N 9 15 --- ---
Zugspitze 2960 ------ -1.2 -3.7 2.1 64 ---- --- 0 W 10 35 wolkenlos ---
Hohenpeißenberg 977 ------ 6.7 6.6 13.6 87 0.0 0 --- NO 17 25 --- ---

                                                                                            Tabelle: 20 : 00 UHR   

STATIONHÖHELUFTD.TEMP.T-MinT-MaxU%RR1RR12SSSDDFFFXWetter+WolkenBöen
UFS TW Ems 0 ------ --- --- --- --- ---- --- --- -- --- --- --- ---
UFS Deutsche Bucht 26 ------ --- --- --- --- ---- --- --- -- --- --- --- ---
Helgoland 4 1025.5 13.1 12.5 15.0 56 0.0 0 --- -- --- ---   ---
List/Sylt 26 1023.7 12.3 11.8 14.5 62 0.0 0 0 NW 44 58 Regen Windböen
Schleswig 43 1023.8 10.3 9.0 15.2 79 0.0 1 --- W 12 35 --- ---
Leuchtturm Kiel 5 1022.7 12.8 11.4 14.1 62 ---- --- --- NW 45 66 --- Sturmböen
Kiel 27 1023.0 10.4 --- --- 76 0.0 1 --- W 15 33 --- ---
Fehmarn 3 1021.9 12.4 11.2 14.0 73 0.1 0 --- NW 49 63 leichter Regen Windböen
Arkona 42 1019.8 12.4 11.6 14.6 68 0.0 0 --- NW 26 40 Regen ---
Norderney 11 1026.3 13.5 12.5 15.0 68 0.0 0 --- N 37 51 Regen Windböen
Leuchtt. Alte Weser 32 1025.3 13.2 12.8 14.0 52 ---- --- --- NW 47 --- --- ---
Cuxhaven 5 1025.2 13.1 12.7 15.9 60 0.0 0 --- NW 26 51 Regen Windböen
Hamburg-Flh 11 1024.4 11.4 9.8 15.5 68 0.0 0 0 NW 13 21 gering bewölkt ---
Schwerin 59 1023.1 10.7 9.6 15.5 74 0.0 0 --- W 15 26 --- ---
Rostock 4 1021.1 13.0 11.6 14.3 71 0.0 0 --- NW 46 63 Regen Windböen
Greifswald 2 1020.5 10.6 8.0 14.8 75 0.0 0 0 W 13 24 gering bewölkt ---
Emden 0 1026.8 11.1 11.0 15.7 65 0.0 0 --- NW 11 21 --- ---
Bremen-Flh. 5 1026.0 12.6 6.6 16.5 62 0.0 0 0 NW 15 33 gering bewölkt ---
Lüchow 17 1024.1 12.0 8.8 17.2 58 0.0 0 --- W 4 28 --- ---
Marnitz 81 1022.7 10.7 8.0 15.4 66 0.0 0 --- NW 14 40 Regen ---
Waren 70 1021.9 10.5 8.1 15.4 71 0.0 1 --- W 14 26 Regen ---
Neuruppin 38 1022.4 11.7 7.5 15.9 61 0.0 0 --- NW 8 21 --- ---
Angermünde 56 1021.6 9.7 7.1 15.5 76 0.1 0 0 W 15 60 Regen Windböen
Münster/Osnabr.-Flh. 48 1027.0 12.9 5.1 16.5 67 0.0 0 0 N 13 23 bewölkt ---
Hannover-Flh. 59 1025.7 10.9 8.4 15.5 65 0.0 1 0 NW 15 26 gering bewölkt ---
Magdeburg 76 1024.1 11.0 9.9 16.7 75 0.0 1 --- W 9 21 wolkenlos ---
Potsdam 81 1022.4 11.7 7.7 16.4 61 0.0 0 0 W 17 26 bewölkt ---
Berlin-Tegel 37 1022.3 13.3 7.8 16.6 52 0.0 0 0 NW 12 22 bewölkt ---
Berlin-Tempelhof 48 1022.1 12.7 8.3 16.6 51 0.0 0 --- NW 13 32 --- ---
Berlin-Dahlem 51 1022.0 12.8 7.8 16.3 --- ---- 0 0 NW 14 --- bewölkt ---
Lindenberg 91 1021.8 10.5 7.4 15.7 66 0.0 0 0 NW 7 22 bewölkt ---
Düsseldorf-Flh. 45 1027.0 14.9 4.7 17.9 57 0.0 0 0 N 15 25 bewölkt ---
Essen 150 1027.1 13.2 5.7 17.2 63 0.0 0 --- N 11 25 --- ---
Kahler Asten 839 ------ 6.7 4.4 10.2 82 0.0 0 --- NW 18 29 --- ---
Bad Lippspringe 157 1026.1 12.8 6.9 16.2 67 0.0 0 --- NW 8 17 Regen ---
Fritzlar 174 1025.8 13.6 5.0 16.8 53 ---- 0 0 NW 14 --- gering bewölkt ---
Brocken 1142 ------ 3.5 3.0 6.6 93 ---- 0 0 NW 29 43 bewölkt ---
Leipzig-Flh. 142 1024.1 12.0 7.5 15.9 60 0.0 0 0 W 15 28 bewölkt ---
Dresden-Flh. 227 1023.3 11.5 7.6 14.1 58 0.0 1 0 W 15 29 bewölkt ---
Cottbus 69 1021.9 9.0 8.0 15.9 75 0.0 0 --- SW 3 14 --- ---
Görlitz 238 1022.5 10.5 7.6 14.9 58 0.0 0 --- W 6 17 --- ---
Aachen 231 1027.0 13.0 5.8 16.4 53 0.0 0 --- N 8 20 --- ---
Nürburg 485 1026.6 11.0 4.4 14.1 60 0.0 0 --- N 11 17 wolkenlos ---
Köln/Bonn-Flh. 92 1026.7 13.4 4.8 18.3 61 0.0 0 0 N 15 24 gering bewölkt ---
Gießen/Wettenberg 203 1025.8 13.6 4.2 17.9 51 0.0 0 --- NW 13 22 wolkenlos ---
Wasserkuppe 921 ------ 7.2 4.1 11.6 63 0.0 0 --- N 24 31 wolkenlos ---
Meiningen 450 1025.6 10.1 6.1 14.9 54 0.0 0 --- NW 9 18 wolkenlos ---
Erfurt 316 1024.9 11.6 6.1 16.0 54 0.0 0 0 NW 18 26 gering bewölkt ---
Gera 311 1024.4 11.1 6.6 14.9 67 0.0 0 --- N 7 14 --- ---
Fichtelberg 1213 ------ 3.5 1.5 8.3 87 ---- --- --- NW 22 39 --- ---
Trier 265 1025.9 13.6 5.6 18.5 49 0.0 0 --- N 13 31 wolkenlos ---
Hahn-Flh. 497 1026.3 10.7 5.8 14.7 57 0.0 0 --- N 6 18 --- ---
Frankfurt/M-Flh. 112 1025.2 16.2 6.3 19.0 38 0.0 0 0 N 16 24 gering bewölkt ---
OF-Wetterpark 119 1025.3 15.5 5.1 18.3 41 0.0 0 --- N 8 16 --- ---
Würzburg 268 1025.1 14.1 7.7 18.6 41 0.0 0 --- NO 7 17 wolkenlos ---
Bamberg 239 1024.5 13.6 3.6 17.6 41 0.0 0 --- NW 8 24 --- ---
Hof 567 1024.8 9.7 5.3 13.8 58 0.0 0 --- NW 8 15 wolkenlos ---
Weiden 438 1024.3 11.4 5.2 15.7 56 0.0 0 --- O 5 10 --- ---
Saarbrücken-Flh. 320 1024.9 13.6 7.4 17.8 49 0.0 0 0 NO 9 22 wolkenlos ---
Karlsruhe-Rheinst. 116 1024.3 15.9 9.3 19.3 45 0.0 0 --- N 19 30 wolkenlos ---
Mannheim 96 1024.9 15.3 7.9 18.5 43 0.0 0 --- NO 6 15 wolkenlos ---
Stuttgart-Flh. 371 1023.9 14.0 8.9 17.2 45 0.0 0 --- N 13 27 wolkenlos ---
Öhringen 276 1024.5 14.3 6.3 18.5 47 0.0 0 --- NO 8 14 wolkenlos ---
Nürnberg-Flh. 314 1024.5 12.3 4.5 16.6 55 0.0 0 0 N 5 13 gering bewölkt ---
Regensburg 366 1024.2 11.8 5.7 18.7 57 0.0 0 --- N 4 10 wolkenlos ---
Straubing 351 1023.9 12.5 7.9 16.4 58 0.0 0 --- NW 4 10 --- ---
Großer Arber 1436 ------ 3.0 -0.1 7.7 79 0.0 0 --- N 17 25 --- ---
Lahr 155 1023.4 13.8 7.9 19.8 58 0.0 0 --- NO 18 33 wolkenlos ---
Freudenstadt 797 ------ 10.1 5.2 14.1 55 0.0 0 --- NO 14 23 wolkenlos ---
Stötten 734 1024.9 9.1 5.6 15.1 62 0.0 0 --- N 11 16 wolkenlos ---
Augsburg 462 1024.6 8.8 4.4 15.5 82 0.0 0 --- NO 6 9 wolkenlos ---
München-Flh. 444 1024.4 9.7 7.1 16.1 69 0.0 0 0 NO 2 5 gering bewölkt ---
Fürstenzell 476 1023.5 11.9 7.5 16.0 54 0.0 0 --- W 11 18 wolkenlos ---
Feldberg/Schw. 1486 ------ 6.2 2.7 10.4 68 0.0 0 0 O 29 36 wolkenlos ---
Konstanz 443 1022.6 14.8 11.2 19.4 50 0.0 0 --- N 9 22 --- ---
Kempten 705 1023.0 11.7 9.7 16.7 68 0.0 0 --- O 3 14 --- ---
Oberstdorf 806 ------ 13.2 10.2 15.5 72 0.0 0 --- N 5 11 --- ---
Zugspitze 2960 ------ 1.3 -1.1 5.0 47 ---- --- --- SW 21 33 wolkenlos ---
Hohenpeißenberg 977 ------ 8.9 6.8 12.8 65 0.0 0 --- NO 21 27 wolkenlos ---

 

  • Wetterzustand
  • Windrichtung und -geschwindigkeit
  • Luftdruck
  • relative Luftfeuchtigkeit
  • Sichtweite
  • Gesamtbedeckungsgrad
  • Niederschlag
  • Sonnenscheindauer

 Höhe:     m über NN
Luftd.:   auf Meereshöhe reduzierter Luftdruck in hPa
TEMP.:   Lufttemperatur in Grad Celsius
T-MIN:   Minimumtemperatur der Luft in 2m Höhe in Grad Celsius, von 18 UTC Vortag bis 06 UTC heute
T-MAX:  Maximumtemperatur der Luft in 2m Höhe in Grad Celsius, von 18 UTC Vortag bis 06 UTC heute
RR1:     Niederschlagsmenge, einstündig, mm ist gleich Liter pro
RR12:   Niederschlagsmenge, 12 stündig, 18 UTC Vortag bis 06 UTC heute in mm ist gleich Liter pro
SSS:     Gesamtschneehöhe
DD:      Windrichtung
FF:       Windgeschwindigkeit letztes 10-Minutenmittel in km/h
FX:       höchste Windspitze während der letzten Stunde in km/h
---:      Wert nicht vorhanden

 

2009-2019

Unwetterwarnungen

 

  Radarbild           

aktueller Radarfilm Deutschland

  Europa-Meteoalarm